Pine Canyon, Utah
Current Conditions -  °F | °C
As of 8:53 PM on Monday 20 Oct 2014 (Local Time) from KSLC Reporting Station
Few Clouds Few Clouds  
Wind Chill: 17°   Ceiling: Unl
Heat Index: 17°   Visibility: 10mi
Dew Point:   Wind: 8mph
Humidity: 40%   Direction: 120°ESE
Pressure: 29.9"   Gusts: NA
Location:  40.5393°N, 112.353°W
Report Text: KSLC 210253Z 12007KT 10SM FEW120 17/03 A2990 RMK AO2 SLP092 T01720033 56003
Loading
Personal Weather Stations






























Interactive Weather Map
Tropical Storm Tracking
New forecast layout! Learn more

10-Day Weather Forecast

Advertisements
Track Severe Weather on mobile